createdAt,value
2018-10-18T00:00:13.227Z,10.22
2018-10-18T00:02:41.503Z,10.14
2018-10-18T00:05:10.458Z,10.00
2018-10-18T00:07:38.955Z,9.96
2018-10-18T00:10:08.034Z,10.01
2018-10-18T00:12:37.264Z,9.98
2018-10-18T00:15:06.863Z,10.01
2018-10-18T00:17:49.907Z,9.99
2018-10-18T00:20:18.422Z,10.02
2018-10-18T00:25:30.943Z,10.06
2018-10-18T00:28:00.364Z,10.01
2018-10-18T00:30:28.784Z,10.02
2018-10-18T00:32:57.288Z,9.97
2018-10-18T00:35:25.739Z,9.97
2018-10-18T00:37:54.205Z,9.98
2018-10-18T00:40:22.660Z,9.93
2018-10-18T00:42:51.135Z,10.00
2018-10-18T00:45:19.625Z,10.02
2018-10-18T00:47:48.136Z,10.08
2018-10-18T00:50:16.685Z,10.11
2018-10-18T00:52:45.194Z,10.07
2018-10-18T00:55:13.957Z,10.07
2018-10-18T00:57:42.595Z,9.98
2018-10-18T01:00:11.872Z,9.96
2018-10-18T01:02:40.411Z,9.91
2018-10-18T01:05:09.046Z,9.97
2018-10-18T01:07:37.667Z,9.99
2018-10-18T01:10:06.171Z,9.96
2018-10-18T01:12:34.668Z,9.94
2018-10-18T01:15:03.195Z,9.93
2018-10-18T01:17:32.536Z,9.91
2018-10-18T01:20:01.014Z,9.93
2018-10-18T01:22:29.470Z,9.91
2018-10-18T01:24:57.930Z,9.88
2018-10-18T01:27:26.400Z,9.82
2018-10-18T01:29:54.872Z,9.79
2018-10-18T01:32:23.817Z,9.76
2018-10-18T01:34:52.348Z,9.76
2018-10-18T01:37:21.446Z,9.77
2018-10-18T01:39:50.019Z,9.72
2018-10-18T01:42:18.643Z,9.70
2018-10-18T01:44:47.148Z,9.68
2018-10-18T01:47:15.592Z,9.70
2018-10-18T01:49:44.103Z,9.60
2018-10-18T01:52:13.202Z,9.62
2018-10-18T01:54:41.656Z,9.53
2018-10-18T01:57:10.624Z,9.50
2018-10-18T01:59:39.137Z,9.49
2018-10-18T02:02:07.681Z,9.54
2018-10-18T02:04:36.123Z,9.60
2018-10-18T02:07:04.594Z,9.56
2018-10-18T02:09:33.103Z,9.44
2018-10-18T02:12:01.561Z,9.49
2018-10-18T02:14:30.727Z,9.43
2018-10-18T02:16:59.160Z,9.50
2018-10-18T02:19:27.648Z,9.46
2018-10-18T02:21:56.106Z,9.44
2018-10-18T02:24:24.644Z,9.40
2018-10-18T02:26:53.788Z,9.34
2018-10-18T02:29:22.275Z,9.19
2018-10-18T02:31:50.875Z,9.12
2018-10-18T02:34:19.346Z,4.12
2018-10-18T02:36:47.850Z,9.18
2018-10-18T02:39:16.324Z,9.22
2018-10-18T02:41:44.752Z,9.21
2018-10-18T02:44:13.315Z,9.27
2018-10-18T02:46:41.808Z,9.37
2018-10-18T02:49:10.604Z,9.36
2018-10-18T02:51:39.054Z,9.39
2018-10-18T02:54:08.085Z,9.36
2018-10-18T02:56:36.531Z,9.32
2018-10-18T02:59:05.426Z,9.30
2018-10-18T03:01:33.935Z,9.23
2018-10-18T03:04:02.388Z,9.15
2018-10-18T03:06:31.081Z,9.12
2018-10-18T03:08:59.549Z,9.11
2018-10-18T03:11:28.003Z,9.11
2018-10-18T03:13:56.651Z,9.09
2018-10-18T03:16:25.074Z,9.09
2018-10-18T03:18:53.548Z,9.05
2018-10-18T03:21:22.111Z,9.03
2018-10-18T03:23:51.495Z,9.02
2018-10-18T03:26:20.063Z,8.90
2018-10-18T03:28:48.574Z,8.91
2018-10-18T03:31:17.040Z,8.96
2018-10-18T03:33:45.660Z,8.97
2018-10-18T03:36:14.400Z,8.94
2018-10-18T03:38:43.142Z,8.92
2018-10-18T03:41:11.940Z,8.88
2018-10-18T03:43:40.464Z,8.87
2018-10-18T03:46:09.090Z,8.83
2018-10-18T03:48:38.480Z,8.78
2018-10-18T03:51:07.070Z,8.80
2018-10-18T03:53:35.816Z,8.81
2018-10-18T03:56:04.963Z,8.80
2018-10-18T03:58:33.573Z,8.74
2018-10-18T04:01:02.038Z,8.71
2018-10-18T04:03:30.620Z,8.63
2018-10-18T04:05:59.401Z,8.54
2018-10-18T04:08:27.760Z,8.50
2018-10-18T04:10:56.247Z,8.49
2018-10-18T04:13:25.306Z,8.54
2018-10-18T04:15:56.794Z,8.46
2018-10-18T04:18:25.261Z,8.51
2018-10-18T04:20:53.767Z,8.48
2018-10-18T04:23:30.670Z,8.43
2018-10-18T04:25:59.741Z,8.43
2018-10-18T04:28:28.195Z,8.39
2018-10-18T04:30:59.123Z,8.39
2018-10-18T04:33:27.600Z,8.39
2018-10-18T04:35:56.120Z,8.31
2018-10-18T04:38:25.574Z,8.27
2018-10-18T04:40:54.029Z,8.16
2018-10-18T04:43:22.472Z,8.18
2018-10-18T04:45:51.445Z,8.25
2018-10-18T04:48:19.976Z,8.23
2018-10-18T04:50:48.374Z,8.24
2018-10-18T04:53:16.826Z,8.21
2018-10-18T04:55:45.345Z,8.25
2018-10-18T04:58:13.885Z,8.19
2018-10-18T05:00:42.402Z,8.12
2018-10-18T05:03:10.874Z,8.12
2018-10-18T05:05:48.783Z,8.02
2018-10-18T05:08:17.331Z,8.06
2018-10-18T05:10:45.777Z,8.05
2018-10-18T05:13:14.290Z,8.36
2018-10-18T05:15:44.509Z,8.31
2018-10-18T05:18:13.910Z,8.25
2018-10-18T05:20:42.452Z,8.24
2018-10-18T05:23:11.561Z,8.19
2018-10-18T05:25:40.405Z,8.10
2018-10-18T05:28:08.849Z,8.11
2018-10-18T05:30:37.347Z,8.05
2018-10-18T05:33:06.146Z,8.03
2018-10-18T05:35:34.807Z,8.48
2018-10-18T05:38:03.495Z,8.87
2018-10-18T05:40:32.719Z,8.80
2018-10-18T05:43:01.447Z,8.52
2018-10-18T05:45:30.209Z,8.41
2018-10-18T05:47:58.701Z,8.33
2018-10-18T05:50:27.102Z,8.23
2018-10-18T05:52:56.096Z,8.12
2018-10-18T05:55:24.575Z,8.09
2018-10-18T05:57:53.791Z,8.05
2018-10-18T06:00:23.110Z,7.97
2018-10-18T06:02:52.556Z,7.88
2018-10-18T06:05:21.787Z,7.96
2018-10-18T06:07:51.200Z,7.91
2018-10-18T06:10:31.546Z,7.90
2018-10-18T06:13:00.888Z,7.91
2018-10-18T06:15:29.594Z,8.01
2018-10-18T06:17:58.079Z,8.06
2018-10-18T06:20:26.565Z,8.13
2018-10-18T06:22:55.155Z,8.10
2018-10-18T06:25:24.008Z,8.10
2018-10-18T06:27:53.210Z,8.12
2018-10-18T06:30:21.625Z,8.15
2018-10-18T06:32:50.755Z,8.13
2018-10-18T06:35:19.244Z,8.18
2018-10-18T06:37:47.718Z,8.24
2018-10-18T06:40:17.272Z,8.33
2018-10-18T06:42:45.787Z,8.35
2018-10-18T06:45:15.688Z,8.40
2018-10-18T06:47:44.591Z,8.44
2018-10-18T06:50:15.172Z,8.40
2018-10-18T06:52:44.420Z,8.59
2018-10-18T06:55:13.058Z,8.72
2018-10-18T06:57:42.287Z,8.79
2018-10-18T07:00:20.741Z,8.91
2018-10-18T07:02:49.464Z,9.08
2018-10-18T07:05:18.030Z,9.22
2018-10-18T07:07:46.591Z,9.38
2018-10-18T07:10:15.068Z,9.50
2018-10-18T07:12:43.695Z,9.63
2018-10-18T07:15:13.802Z,9.79
2018-10-18T07:17:42.973Z,9.93
2018-10-18T07:20:12.924Z,10.06
2018-10-18T07:22:41.724Z,10.21
2018-10-18T07:25:11.834Z,10.22
2018-10-18T07:27:41.151Z,10.35
2018-10-18T07:30:10.932Z,11.40
2018-10-18T07:32:39.663Z,12.03
2018-10-18T07:35:09.501Z,12.54
2018-10-18T07:37:38.235Z,12.95
2018-10-18T07:40:08.663Z,13.20
2018-10-18T07:42:37.129Z,12.87
2018-10-18T07:45:07.004Z,12.66
2018-10-18T07:47:35.955Z,12.29
2018-10-18T07:50:04.641Z,12.38
2018-10-18T07:52:33.175Z,12.41
2018-10-18T07:55:01.687Z,12.97
2018-10-18T07:57:30.268Z,13.37
2018-10-18T07:59:58.890Z,13.69
2018-10-18T08:02:27.458Z,13.83
2018-10-18T08:04:55.883Z,14.14
2018-10-18T08:07:24.379Z,14.48
2018-10-18T08:09:52.901Z,14.74
2018-10-18T08:12:21.522Z,14.53
2018-10-18T08:14:49.975Z,14.75
2018-10-18T08:18:43.998Z,14.74
2018-10-18T08:21:12.983Z,14.90
2018-10-18T08:23:41.460Z,15.17
2018-10-18T08:26:10.848Z,15.12
2018-10-18T08:28:39.308Z,15.45
2018-10-18T08:31:07.914Z,15.62
2018-10-18T08:33:36.357Z,15.05
2018-10-18T08:36:04.798Z,15.56
2018-10-18T08:38:34.316Z,15.76
2018-10-18T08:41:02.750Z,16.42
2018-10-18T08:43:31.265Z,16.43
2018-10-18T08:46:00.907Z,16.57
2018-10-18T08:48:29.380Z,16.56
2018-10-18T08:50:57.856Z,16.98
2018-10-18T08:53:26.416Z,17.48
2018-10-18T08:55:54.840Z,17.36
2018-10-18T08:58:23.474Z,17.47
2018-10-18T09:00:52.766Z,17.61
2018-10-18T09:03:21.297Z,17.91
2018-10-18T09:05:49.962Z,18.19
2018-10-18T09:08:18.407Z,18.51
2018-10-18T09:10:47.496Z,18.30
2018-10-18T09:13:16.088Z,18.50
2018-10-18T09:15:49.522Z,18.82
2018-10-18T09:18:18.148Z,18.56
2018-10-18T09:20:46.596Z,18.75
2018-10-18T09:23:15.063Z,18.95
2018-10-18T09:25:45.016Z,19.77
2018-10-18T09:28:13.595Z,19.28
2018-10-18T09:30:42.087Z,19.76
2018-10-18T09:33:10.929Z,20.37
2018-10-18T09:35:40.432Z,19.98
2018-10-18T09:38:08.933Z,20.23
2018-10-18T09:40:37.380Z,19.24
2018-10-18T09:43:05.978Z,19.35
2018-10-18T09:45:34.558Z,19.39
2018-10-18T09:48:02.992Z,19.11
2018-10-18T09:50:31.644Z,18.17
2018-10-18T09:53:00.091Z,18.04
2018-10-18T09:55:28.638Z,18.30
2018-10-18T09:57:57.179Z,18.05
2018-10-18T10:00:31.017Z,18.04
2018-10-18T10:03:04.707Z,17.91
2018-10-18T10:05:34.102Z,18.04
2018-10-18T10:08:02.531Z,18.26
2018-10-18T10:10:31.248Z,18.21
2018-10-18T10:13:00.339Z,18.62
2018-10-18T10:15:28.850Z,18.16
2018-10-18T10:17:57.274Z,18.32
2018-10-18T10:20:25.742Z,18.05
2018-10-18T10:22:54.424Z,18.22
2018-10-18T10:25:22.900Z,18.24
2018-10-18T10:27:51.542Z,18.29
2018-10-18T10:30:20.139Z,18.82
2018-10-18T10:32:48.511Z,19.41
2018-10-18T10:35:17.381Z,19.20
2018-10-18T10:37:45.792Z,18.74
2018-10-18T10:40:14.438Z,19.04
2018-10-18T10:42:43.082Z,18.75
2018-10-18T10:45:12.512Z,19.33
2018-10-18T10:47:40.939Z,19.19
2018-10-18T10:50:11.312Z,20.11
2018-10-18T10:52:40.112Z,20.46
2018-10-18T10:55:11.248Z,20.72
2018-10-18T10:57:39.721Z,19.91
2018-10-18T11:00:08.382Z,20.49
2018-10-18T11:02:36.914Z,20.31
2018-10-18T11:05:05.993Z,20.36
2018-10-18T11:07:34.744Z,21.28
2018-10-18T11:10:03.200Z,20.78
2018-10-18T11:12:32.795Z,21.77
2018-10-18T11:15:01.619Z,21.77
2018-10-18T11:17:30.037Z,21.94
2018-10-18T11:19:59.171Z,21.33
2018-10-18T11:22:27.730Z,21.58
2018-10-18T11:24:56.190Z,20.99
2018-10-18T11:27:24.636Z,21.97
2018-10-18T11:29:53.669Z,22.17
2018-10-18T11:32:22.137Z,21.79
2018-10-18T11:34:51.431Z,20.74
2018-10-18T11:37:19.901Z,20.92
2018-10-18T11:39:48.381Z,21.51
2018-10-18T11:42:16.863Z,22.12
2018-10-18T11:44:45.407Z,21.06
2018-10-18T11:47:13.905Z,21.27
2018-10-18T11:49:42.487Z,21.97
2018-10-18T11:52:11.177Z,21.87
2018-10-18T11:54:39.488Z,22.31
2018-10-18T11:57:07.955Z,21.87
2018-10-18T11:59:36.455Z,22.19
2018-10-18T12:02:05.843Z,21.77
2018-10-18T12:04:34.474Z,22.18
2018-10-18T12:07:03.020Z,22.26
2018-10-18T12:09:31.451Z,21.59
2018-10-18T12:11:59.909Z,22.19
2018-10-18T12:14:28.968Z,22.17
2018-10-18T12:16:57.485Z,22.11
2018-10-18T12:19:26.004Z,21.71
2018-10-18T12:21:54.844Z,22.36
2018-10-18T12:24:23.308Z,22.38
2018-10-18T12:26:51.971Z,22.50
2018-10-18T12:29:20.536Z,22.22
2018-10-18T12:31:48.924Z,21.97
2018-10-18T12:34:17.420Z,22.06
2018-10-18T12:36:46.537Z,22.00
2018-10-18T12:39:15.823Z,22.25
2018-10-18T12:41:44.401Z,22.01
2018-10-18T12:44:14.638Z,21.86
2018-10-18T12:46:43.106Z,21.94
2018-10-18T12:49:12.127Z,21.94
2018-10-18T12:51:41.174Z,21.93
2018-10-18T12:54:09.716Z,21.34
2018-10-18T12:59:37.139Z,20.85
2018-10-18T13:02:06.047Z,21.20
2018-10-18T13:04:35.448Z,21.10
2018-10-18T13:07:04.286Z,20.78
2018-10-18T13:09:32.834Z,20.68
2018-10-18T13:12:01.360Z,20.82
2018-10-18T13:14:30.454Z,20.98
2018-10-18T13:16:59.045Z,21.04
2018-10-18T13:19:27.636Z,21.23
2018-10-18T13:21:56.105Z,21.01
2018-10-18T13:24:24.581Z,21.04
2018-10-18T13:26:53.118Z,20.62
2018-10-18T13:29:21.632Z,20.72
2018-10-18T13:31:50.700Z,20.60
2018-10-18T13:34:19.127Z,20.65
2018-10-18T13:36:47.615Z,20.85
2018-10-18T13:39:16.596Z,20.87
2018-10-18T13:41:45.055Z,20.88
2018-10-18T13:44:14.101Z,20.78
2018-10-18T13:46:43.296Z,20.60
2018-10-18T13:49:11.853Z,20.97
2018-10-18T13:51:40.376Z,20.83
2018-10-18T13:54:08.998Z,20.78
2018-10-18T13:56:37.602Z,20.69
2018-10-18T13:59:10.577Z,20.73
2018-10-18T14:01:39.069Z,20.87
2018-10-18T14:04:07.510Z,20.40
2018-10-18T14:06:35.974Z,20.65
2018-10-18T14:09:05.292Z,20.44
2018-10-18T14:11:33.912Z,20.29
2018-10-18T14:14:02.601Z,20.34
2018-10-18T14:16:31.096Z,20.30
2018-10-18T14:18:59.561Z,20.39
2018-10-18T14:21:28.100Z,20.38
2018-10-18T14:23:56.590Z,20.25
2018-10-18T14:26:25.178Z,20.06
2018-10-18T14:28:54.079Z,20.00
2018-10-18T14:31:22.657Z,19.93
2018-10-18T14:33:51.216Z,19.93
2018-10-18T14:36:19.752Z,19.98
2018-10-18T14:38:48.357Z,19.83
2018-10-18T14:41:16.800Z,19.86
2018-10-18T14:43:45.319Z,19.75
2018-10-18T14:46:14.105Z,19.78
2018-10-18T14:48:42.545Z,19.85
2018-10-18T14:51:11.093Z,19.62
2018-10-18T14:53:39.567Z,19.64
2018-10-18T14:56:08.135Z,19.67
2018-10-18T14:58:36.570Z,19.54
2018-10-18T15:01:05.255Z,19.36
2018-10-18T15:03:36.799Z,19.64
2018-10-18T15:06:05.327Z,19.49
2018-10-18T15:08:34.453Z,19.43
2018-10-18T15:11:03.522Z,19.21
2018-10-18T15:13:31.951Z,19.05
2018-10-18T15:16:00.432Z,18.97
2018-10-18T15:18:28.913Z,18.92
2018-10-18T15:20:57.912Z,18.74
2018-10-18T15:23:26.534Z,18.73
2018-10-18T15:25:55.417Z,18.69
2018-10-18T15:28:24.163Z,18.59
2018-10-18T15:30:52.784Z,18.42
2018-10-18T15:33:21.244Z,18.27
2018-10-18T15:35:50.652Z,18.24
2018-10-18T15:38:19.287Z,18.15
2018-10-18T15:40:47.747Z,18.13
2018-10-18T15:43:16.948Z,18.00
2018-10-18T15:45:46.299Z,17.96
2018-10-18T15:48:15.748Z,17.86
2018-10-18T15:50:44.489Z,17.83
2018-10-18T15:53:14.200Z,17.79
2018-10-18T15:55:43.181Z,17.72
2018-10-18T15:58:11.899Z,17.74
2018-10-18T16:00:40.432Z,17.61
2018-10-18T16:03:08.997Z,17.57
2018-10-18T16:05:37.459Z,17.49
2018-10-18T16:08:06.272Z,17.47
2018-10-18T16:10:35.192Z,17.48
2018-10-18T16:13:03.774Z,17.33
2018-10-18T16:15:32.528Z,17.38
2018-10-18T16:18:01.925Z,17.46
2018-10-18T16:20:30.469Z,17.25
2018-10-18T16:22:59.165Z,17.17
2018-10-18T16:25:28.347Z,17.16
2018-10-18T16:27:56.803Z,17.03
2018-10-18T16:30:25.376Z,16.96
2018-10-18T16:32:53.967Z,16.93
2018-10-18T16:35:22.504Z,16.84
2018-10-18T16:37:50.947Z,16.84
2018-10-18T16:40:19.840Z,16.77
2018-10-18T16:42:48.307Z,16.68
2018-10-18T16:45:16.807Z,16.59
2018-10-18T16:47:49.037Z,16.52
2018-10-18T16:50:17.880Z,16.52
2018-10-18T16:52:46.295Z,16.41
2018-10-18T16:55:15.020Z,16.44
2018-10-18T16:57:43.615Z,16.35
2018-10-18T17:00:13.210Z,16.39
2018-10-18T17:02:41.656Z,16.34
2018-10-18T17:05:10.112Z,16.27
2018-10-18T17:07:39.637Z,16.25
2018-10-18T17:10:08.132Z,16.15
2018-10-18T17:12:36.563Z,16.16
2018-10-18T17:15:06.092Z,15.43
2018-10-18T17:17:35.927Z,16.00
2018-10-18T17:20:04.465Z,15.90
2018-10-18T17:22:32.969Z,15.95
2018-10-18T17:25:01.454Z,15.97
2018-10-18T17:27:30.125Z,15.80
2018-10-18T17:29:58.913Z,16.03
2018-10-18T17:32:27.700Z,15.88
2018-10-18T17:34:56.178Z,15.79
2018-10-18T17:37:25.069Z,15.81
2018-10-18T17:39:53.908Z,15.66
2018-10-18T17:42:22.525Z,15.66
2018-10-18T17:44:51.201Z,15.61
2018-10-18T17:47:19.819Z,15.61
2018-10-18T17:49:50.030Z,15.69
2018-10-18T17:52:19.200Z,15.58
2018-10-18T17:54:47.652Z,15.56
2018-10-18T17:57:16.292Z,15.54
2018-10-18T17:59:44.830Z,15.48
2018-10-18T18:02:13.928Z,15.38
2018-10-18T18:04:42.356Z,15.41
2018-10-18T18:07:10.844Z,15.38
2018-10-18T18:09:39.352Z,15.35
2018-10-18T18:12:08.427Z,15.35
2018-10-18T18:14:37.424Z,15.23
2018-10-18T18:17:06.479Z,15.25
2018-10-18T18:19:35.230Z,14.99
2018-10-18T18:22:04.367Z,15.15
2018-10-18T18:24:33.401Z,15.11
2018-10-18T18:27:02.066Z,14.96
2018-10-18T18:29:31.085Z,15.01
2018-10-18T18:32:01.349Z,14.99
2018-10-18T18:34:30.124Z,14.91
2018-10-18T18:36:58.628Z,14.87
2018-10-18T18:39:27.074Z,14.84
2018-10-18T18:41:55.580Z,14.81
2018-10-18T18:44:24.022Z,14.72
2018-10-18T18:46:53.322Z,14.79
2018-10-18T18:49:21.751Z,14.63
2018-10-18T18:51:50.172Z,14.65
2018-10-18T18:54:18.925Z,14.62
2018-10-18T18:56:47.642Z,14.62
2018-10-18T18:59:16.245Z,14.53
2018-10-18T19:01:45.672Z,14.54
2018-10-18T19:04:14.859Z,14.44
2018-10-18T19:06:43.331Z,14.51
2018-10-18T19:09:12.161Z,14.45
2018-10-18T19:11:40.780Z,14.44
2018-10-18T19:14:09.715Z,14.47
2018-10-18T19:16:38.263Z,14.40
2018-10-18T19:19:06.974Z,14.43
2018-10-18T19:21:35.579Z,14.44
2018-10-18T19:24:04.202Z,14.32
2018-10-18T19:26:32.681Z,14.38
2018-10-18T19:29:01.310Z,14.26
2018-10-18T19:31:30.662Z,14.27
2018-10-18T19:33:59.226Z,14.10
2018-10-18T19:36:27.784Z,13.88
2018-10-18T19:38:56.227Z,13.86
2018-10-18T19:41:24.806Z,13.85
2018-10-18T19:43:53.991Z,13.67
2018-10-18T19:46:22.567Z,13.60
2018-10-18T19:48:51.004Z,13.64
2018-10-18T19:51:19.970Z,13.60
2018-10-18T19:53:48.435Z,13.43
2018-10-18T19:56:17.030Z,13.14
2018-10-18T19:58:45.685Z,13.15
2018-10-18T20:01:14.441Z,13.12
2018-10-18T20:03:42.950Z,13.18
2018-10-18T20:06:11.483Z,13.25
2018-10-18T20:08:39.999Z,13.23
2018-10-18T20:11:08.519Z,13.29
2018-10-18T20:13:37.111Z,13.25
2018-10-18T20:16:05.895Z,13.04
2018-10-18T20:18:34.945Z,13.05
2018-10-18T20:21:03.429Z,13.10
2018-10-18T20:23:32.126Z,13.03
2018-10-18T20:26:00.953Z,13.32
2018-10-18T20:28:29.263Z,13.38
2018-10-18T20:30:57.764Z,13.43
2018-10-18T20:33:26.210Z,13.45
2018-10-18T20:35:55.256Z,13.86
2018-10-18T20:38:23.778Z,13.92
2018-10-18T20:40:52.798Z,14.00
2018-10-18T20:43:21.294Z,13.97
2018-10-18T20:45:49.858Z,13.87
2018-10-18T20:48:18.292Z,13.81
2018-10-18T20:50:46.809Z,13.90
2018-10-18T20:53:16.071Z,14.05
2018-10-18T20:55:44.521Z,13.97
2018-10-18T20:58:13.656Z,14.03
2018-10-18T21:00:42.212Z,14.01
2018-10-18T21:03:10.725Z,14.01
2018-10-18T21:05:39.149Z,13.98
2018-10-18T21:08:07.553Z,13.92
2018-10-18T21:10:36.940Z,13.93
2018-10-18T21:13:06.158Z,13.90
2018-10-18T21:15:35.280Z,13.94
2018-10-18T21:18:04.418Z,13.92
2018-10-18T21:20:33.145Z,13.92
2018-10-18T21:23:01.718Z,13.87
2018-10-18T21:25:30.248Z,13.87
2018-10-18T21:27:58.735Z,13.78
2018-10-18T21:30:27.199Z,13.80
2018-10-18T21:32:56.665Z,13.83
2018-10-18T21:35:25.061Z,13.71
2018-10-18T21:37:54.124Z,13.82
2018-10-18T21:40:23.044Z,13.77
2018-10-18T21:42:51.521Z,13.70
2018-10-18T21:45:24.237Z,13.60
2018-10-18T21:47:53.129Z,13.68
2018-10-18T21:50:21.729Z,13.66
2018-10-18T21:52:50.880Z,13.61
2018-10-18T21:55:25.968Z,13.56
2018-10-18T21:57:55.558Z,13.65
2018-10-18T22:00:27.392Z,13.53
2018-10-18T22:02:55.967Z,13.45
2018-10-18T22:05:24.412Z,13.43
2018-10-18T22:07:53.407Z,13.46
2018-10-18T22:10:21.855Z,13.47
2018-10-18T22:12:50.316Z,13.37
2018-10-18T22:15:19.474Z,13.33
2018-10-18T22:17:48.541Z,13.26
2018-10-18T22:20:17.401Z,13.22
2018-10-18T22:22:45.884Z,13.14
2018-10-18T22:25:15.527Z,13.04
2018-10-18T22:27:44.659Z,12.99
2018-10-18T22:30:13.991Z,12.98
2018-10-18T22:32:42.478Z,13.02
2018-10-18T22:35:10.990Z,12.90
2018-10-18T22:37:39.445Z,12.88
2018-10-18T22:40:08.324Z,12.74
2018-10-18T22:42:36.968Z,12.67
2018-10-18T22:45:06.507Z,12.84
2018-10-18T22:47:35.055Z,12.81
2018-10-18T22:50:03.519Z,12.86
2018-10-18T22:52:31.969Z,12.80
2018-10-18T22:55:00.396Z,12.87
2018-10-18T22:57:28.880Z,12.87
2018-10-18T22:59:57.379Z,12.69
2018-10-18T23:02:25.857Z,12.69
2018-10-18T23:04:54.916Z,12.73
2018-10-18T23:07:23.370Z,12.74
2018-10-18T23:09:52.105Z,12.69
2018-10-18T23:12:20.582Z,12.46
2018-10-18T23:14:49.105Z,12.35
2018-10-18T23:17:17.611Z,12.19
2018-10-18T23:19:46.072Z,12.11
2018-10-18T23:22:16.571Z,12.07
2018-10-18T23:24:45.732Z,11.98
2018-10-18T23:27:14.445Z,11.94
2018-10-18T23:29:43.397Z,11.95
2018-10-18T23:32:13.429Z,11.92
2018-10-18T23:34:41.940Z,11.78
2018-10-18T23:37:10.805Z,11.55
2018-10-18T23:39:39.315Z,11.61
2018-10-18T23:42:07.748Z,11.54
2018-10-18T23:44:36.252Z,11.41
2018-10-18T23:47:05.377Z,11.38
2018-10-18T23:49:34.547Z,11.34
2018-10-18T23:52:03.059Z,11.31
2018-10-18T23:54:31.545Z,11.30
2018-10-18T23:57:01.092Z,11.29
2018-10-18T23:59:29.955Z,11.16
